createdAt,value
2023-03-23T00:02:54.729Z,2.20
2023-03-23T00:13:54.608Z,1.80
2023-03-23T00:24:54.565Z,1.70
2023-03-23T00:35:54.376Z,1.80
2023-03-23T00:46:54.263Z,1.70
2023-03-23T00:57:54.123Z,1.30
2023-03-23T01:08:53.999Z,1.10
2023-03-23T01:19:53.900Z,1.20
2023-03-23T01:30:53.768Z,1.50
2023-03-23T01:41:53.670Z,1.60
2023-03-23T01:52:53.525Z,1.40
2023-03-23T02:03:53.400Z,1.10
2023-03-23T02:14:53.280Z,1.80
2023-03-23T02:25:53.186Z,1.20
2023-03-23T02:36:53.034Z,1.30
2023-03-23T02:47:52.910Z,1.30
2023-03-23T02:58:52.795Z,1.80
2023-03-23T03:09:52.687Z,2.40
2023-03-23T03:20:52.555Z,1.80
2023-03-23T03:31:52.434Z,1.10
2023-03-23T03:42:52.324Z,1.50
2023-03-23T03:53:52.185Z,1.60
2023-03-23T04:04:52.062Z,1.60
2023-03-23T04:16:07.060Z,1.80
2023-03-23T04:26:51.823Z,1.40
2023-03-23T04:37:51.714Z,1.70
2023-03-23T04:48:51.582Z,2.00
2023-03-23T04:59:51.459Z,2.10
2023-03-23T05:10:51.330Z,1.80
2023-03-23T05:21:51.239Z,1.70
2023-03-23T05:32:51.084Z,2.20
2023-03-23T05:43:50.967Z,1.40
2023-03-23T05:54:50.844Z,1.20
2023-03-23T06:05:50.732Z,1.80
2023-03-23T06:16:50.630Z,2.00
2023-03-23T06:27:50.464Z,1.60
2023-03-23T06:38:50.358Z,2.40
2023-03-23T06:49:50.223Z,1.60
2023-03-23T07:00:50.108Z,1.70
2023-03-23T07:11:49.980Z,1.30
2023-03-23T07:22:49.903Z,1.80
2023-03-23T07:33:49.759Z,1.40
2023-03-23T07:44:49.829Z,1.10
2023-03-23T07:55:49.499Z,1.10
2023-03-23T08:06:49.378Z,1.20
2023-03-23T08:17:49.292Z,1.20
2023-03-23T08:28:49.164Z,0.90
2023-03-23T08:39:49.041Z,1.40
2023-03-23T08:50:48.884Z,1.00
2023-03-23T09:01:48.764Z,1.20
2023-03-23T09:12:48.654Z,1.40
2023-03-23T09:23:48.533Z,0.90
2023-03-23T09:34:48.406Z,1.10
2023-03-23T09:45:48.738Z,1.30
2023-03-23T09:56:48.146Z,1.40
2023-03-23T10:07:48.025Z,2.00
2023-03-23T10:18:47.909Z,0.90
2023-03-23T10:29:47.778Z,1.40
2023-03-23T10:40:47.665Z,1.10
2023-03-23T10:51:47.560Z,0.80
2023-03-23T11:02:47.419Z,1.20
2023-03-23T11:13:47.496Z,1.40
2023-03-23T11:24:47.177Z,1.00
2023-03-23T11:35:47.064Z,0.80
2023-03-23T11:46:46.921Z,0.80
2023-03-23T11:57:46.779Z,0.80
2023-03-23T12:08:46.654Z,0.80
2023-03-23T12:19:46.538Z,1.10
2023-03-23T12:30:46.400Z,1.40
2023-03-23T12:41:46.275Z,1.10
2023-03-23T12:52:46.164Z,0.90
2023-03-23T13:02:09.958Z,1.10
2023-03-23T13:13:14.857Z,1.10
2023-03-23T13:24:14.722Z,0.90
2023-03-23T13:35:14.569Z,0.70
2023-03-23T13:46:14.470Z,1.00
2023-03-23T13:57:14.316Z,1.20
2023-03-23T14:08:14.186Z,1.40
2023-03-23T14:19:14.069Z,0.90
2023-03-23T14:30:13.935Z,1.00
2023-03-23T14:41:13.796Z,1.00
2023-03-23T14:52:13.695Z,1.40
2023-03-23T15:03:13.546Z,0.90
2023-03-23T15:14:13.410Z,1.30
2023-03-23T15:25:13.289Z,1.40
2023-03-23T15:36:13.174Z,1.70
2023-03-23T15:47:13.044Z,1.20
2023-03-23T15:58:12.917Z,1.60
2023-03-23T16:09:12.811Z,1.10
2023-03-23T16:20:12.667Z,2.60
2023-03-23T16:31:12.574Z,1.90
2023-03-23T16:42:12.435Z,1.70
2023-03-23T16:53:12.282Z,2.20
2023-03-23T17:04:12.165Z,2.20
2023-03-23T17:15:12.039Z,2.10
2023-03-23T17:26:11.911Z,2.00
2023-03-23T17:37:11.795Z,1.90
2023-03-23T17:48:11.702Z,2.10
2023-03-23T17:59:11.551Z,2.30
2023-03-23T18:10:11.426Z,2.90
2023-03-23T18:21:11.310Z,3.60
2023-03-23T18:32:11.274Z,2.90
2023-03-23T18:43:11.057Z,2.70
2023-03-23T18:54:10.944Z,3.20
2023-03-23T19:05:10.816Z,4.80
2023-03-23T19:16:10.713Z,4.60
2023-03-23T19:27:11.057Z,4.00
2023-03-23T19:38:10.452Z,3.70
2023-03-23T19:49:10.323Z,5.00
2023-03-23T20:00:10.188Z,5.50
2023-03-23T20:11:10.076Z,4.50
2023-03-23T20:22:09.957Z,3.90
2023-03-23T20:33:09.845Z,4.30
2023-03-23T20:44:09.692Z,4.10
2023-03-23T20:55:09.624Z,3.80
2023-03-23T21:06:09.464Z,3.50
2023-03-23T21:17:09.331Z,4.10
2023-03-23T21:28:09.214Z,4.30
2023-03-23T21:39:09.082Z,4.40
2023-03-23T21:50:08.965Z,5.00
2023-03-23T22:01:08.836Z,4.10
2023-03-23T22:12:08.700Z,3.70
2023-03-23T22:23:08.576Z,5.10
2023-03-23T22:34:08.460Z,3.80
2023-03-23T22:45:08.353Z,4.30
2023-03-23T22:56:08.215Z,3.50
2023-03-23T23:07:13.295Z,4.60
2023-03-23T23:18:08.073Z,4.10
2023-03-23T23:29:07.844Z,3.90
2023-03-23T23:40:07.718Z,4.10
2023-03-23T23:51:07.602Z,4.90
